PWSweather.com
Personal Weather Stations
Station Observations
KCTCOLEB1
Sandy Brook, Colebrook, CT 06021

Sandy BrookColebrook, CT 06021

Lat: 42.0018, Lon: -73.0825

Elevation: 935

Station Type: Davis Vantage Pro2 + Solar + UV

Latest ConditionsUpdated 5:40:00 AM EST Friday, Dec 19, 2014
Currently Today's Max Today's Min Today's Average
Temperature 30.6°F-0.8°C 32.0°F0.0°C 30.6°F-0.8°C 31.4°F-0.3°C
Dew Point 25.2°F-3.8°C 28.6°F-1.9°C 24.9°F-3.9°C 26.9°F-2.8°C
Winds 1.2 mph NW1.9 kmh NW 2.3 mph NW3.7 kmh NW - 1.0 mph 1.6 kmh
Wind Gusts 2.0 mph3.2 kmh 6.0 mph9.7 kmh - -
Humidity 80% 87% 78% 83%
Pressure 29.93 in1013.5 mb 29.93 in1013.5 mb 29.91 in1012.9 mb -
Hour Temp Dew Point Humidity Winds Wind Gusts Pressure Precip Precip Rate Daily Precip Total
05:40 AM 30.6°F-0.8°C 25.2°F-3.8°C 80% 1.2 mph NW1.9 kmh NW 2.0 mph3.2 kmh 29.93 in1013.5 mb 0.00 in0.0 mm 0.00 in/hr0.0 mm/hr 0.00 in0.0 mm
05:30 AM 30.7°F-0.7°C 25.3°F-3.7°C 80% 0.9 mph NW1.4 kmh NW 2.0 mph3.2 kmh 29.92 in1013.2 mb 0.00 in0.0 mm 0.00 in/hr0.0 mm/hr 0.00 in0.0 mm
05:20 AM 30.7°F-0.7°C 25.3°F-3.7°C 80% 1.2 mph NW1.9 kmh NW 2.0 mph3.2 kmh 29.92 in1013.2 mb 0.00 in0.0 mm 0.00 in/hr0.0 mm/hr 0.00 in0.0 mm
05:10 AM 30.8°F-0.7°C 25.4°F-3.7°C 80% 1.2 mph NW1.9 kmh NW 2.0 mph3.2 kmh 29.93 in1013.5 mb 0.00 in0.0 mm 0.00 in/hr0.0 mm/hr 0.00 in0.0 mm
05:00 AM 30.9°F-0.6°C 25.2°F-3.8°C 79% 1.5 mph NW2.4 kmh NW 4.0 mph6.4 kmh 29.93 in1013.5 mb 0.00 in0.0 mm 0.00 in/hr0.0 mm/hr 0.00 in0.0 mm
04:50 AM 30.9°F-0.6°C 25.2°F-3.8°C 79% 0.3 mph SSE0.5 kmh SSE 2.0 mph3.2 kmh 29.93 in1013.5 mb 0.00 in0.0 mm 0.00 in/hr0.0 mm/hr 0.00 in0.0 mm
04:40 AM 31.0°F-0.6°C 25.2°F-3.8°C 79% 1.1 mph NW1.8 kmh NW 2.0 mph3.2 kmh 29.93 in1013.5 mb 0.00 in0.0 mm 0.00 in/hr0.0 mm/hr 0.00 in0.0 mm
04:30 AM 31.0°F-0.6°C 24.9°F-3.9°C 78% 1.2 mph NNW1.9 kmh NNW 2.0 mph3.2 kmh 29.93 in1013.5 mb 0.00 in0.0 mm 0.00 in/hr0.0 mm/hr 0.00 in0.0 mm
04:20 AM 31.0°F-0.6°C 25.0°F-3.9°C 78% 1.3 mph NE2.1 kmh NE 3.0 mph4.8 kmh 29.92 in1013.2 mb 0.00 in0.0 mm 0.00 in/hr0.0 mm/hr 0.00 in0.0 mm
04:10 AM 31.1°F-0.5°C 25.3°F-3.7°C 79% 0.7 mph NE1.1 kmh NE 2.0 mph3.2 kmh 29.92 in1013.2 mb 0.00 in0.0 mm 0.00 in/hr0.0 mm/hr 0.00 in0.0 mm
04:00 AM 31.1°F-0.5°C 25.7°F-3.5°C 80% 1.2 mph WNW1.9 kmh WNW 2.0 mph3.2 kmh 29.92 in1013.2 mb 0.00 in0.0 mm 0.00 in/hr0.0 mm/hr 0.00 in0.0 mm
03:50 AM 31.1°F-0.5°C 25.3°F-3.7°C 79% 1.4 mph W2.3 kmh W 4.0 mph6.4 kmh 29.92 in1013.2 mb 0.00 in0.0 mm 0.00 in/hr0.0 mm/hr 0.00 in0.0 mm
03:40 AM 31.2°F-0.4°C 25.4°F-3.7°C 79% 2.3 mph NW3.7 kmh NW 4.0 mph6.4 kmh 29.92 in1013.2 mb 0.00 in0.0 mm 0.00 in/hr0.0 mm/hr 0.00 in0.0 mm
03:30 AM 31.3°F-0.4°C 25.8°F-3.4°C 80% 1.1 mph N1.8 kmh N 3.0 mph4.8 kmh 29.92 in1013.2 mb 0.00 in0.0 mm 0.00 in/hr0.0 mm/hr 0.00 in0.0 mm
03:20 AM 31.4°F-0.3°C 26.2°F-3.2°C 81% 0.9 mph N1.4 kmh N 2.0 mph3.2 kmh 29.92 in1013.2 mb 0.00 in0.0 mm 0.00 in/hr0.0 mm/hr 0.00 in0.0 mm
03:10 AM 31.4°F-0.3°C 26.8°F-2.9°C 83% 1.4 mph N2.3 kmh N 2.0 mph3.2 kmh 29.92 in1013.2 mb 0.00 in0.0 mm 0.00 in/hr0.0 mm/hr 0.00 in0.0 mm
03:00 AM 31.5°F-0.3°C 27.5°F-2.5°C 85% 1.1 mph ENE1.8 kmh ENE 2.0 mph3.2 kmh 29.92 in1013.2 mb 0.00 in0.0 mm 0.00 in/hr0.0 mm/hr 0.00 in0.0 mm
02:50 AM 31.5°F-0.3°C 27.5°F-2.5°C 85% 0.8 mph ESE1.3 kmh ESE 1.0 mph1.6 kmh 29.92 in1013.2 mb 0.00 in0.0 mm 0.00 in/hr0.0 mm/hr 0.00 in0.0 mm
02:40 AM 31.5°F-0.3°C 27.5°F-2.5°C 85% 0.6 mph NE1.0 kmh NE 2.0 mph3.2 kmh 29.92 in1013.2 mb 0.00 in0.0 mm 0.00 in/hr0.0 mm/hr 0.00 in0.0 mm
02:30 AM 31.6°F-0.2°C 27.6°F-2.4°C 85% 0.4 mph WNW0.6 kmh WNW 1.0 mph1.6 kmh 29.92 in1013.2 mb 0.00 in0.0 mm 0.00 in/hr0.0 mm/hr 0.00 in0.0 mm
02:20 AM 31.6°F-0.2°C 27.9°F-2.3°C 86% 0.5 mph NNE0.8 kmh NNE 1.0 mph1.6 kmh 29.92 in1013.2 mb 0.00 in0.0 mm 0.00 in/hr0.0 mm/hr 0.00 in0.0 mm
02:10 AM 31.7°F-0.2°C 27.7°F-2.4°C 85% 1.2 mph WSW1.9 kmh WSW 2.0 mph3.2 kmh 29.92 in1013.2 mb 0.00 in0.0 mm 0.00 in/hr0.0 mm/hr 0.00 in0.0 mm
02:00 AM 31.7°F-0.2°C 28.0°F-2.2°C 86% 1.0 mph NNE1.6 kmh NNE 2.0 mph3.2 kmh 29.92 in1013.2 mb 0.00 in0.0 mm 0.00 in/hr0.0 mm/hr 0.00 in0.0 mm
01:50 AM 31.7°F-0.2°C 28.0°F-2.2°C 86% 1.4 mph N2.3 kmh N 3.0 mph4.8 kmh 29.92 in1013.2 mb 0.00 in0.0 mm 0.00 in/hr0.0 mm/hr 0.00 in0.0 mm
01:40 AM 31.8°F-0.1°C 28.0°F-2.2°C 86% 0.8 mph ESE1.3 kmh ESE 2.0 mph3.2 kmh 29.91 in1012.9 mb 0.00 in0.0 mm 0.00 in/hr0.0 mm/hr 0.00 in0.0 mm
01:30 AM 31.8°F-0.1°C 28.4°F-2.0°C 87% 0.5 mph N0.8 kmh N 5.0 mph8.0 kmh 29.91 in1012.9 mb 0.00 in0.0 mm 0.00 in/hr0.0 mm/hr 0.00 in0.0 mm
01:20 AM 31.8°F-0.1°C 28.4°F-2.0°C 87% 0.1 mph N0.2 kmh N 1.0 mph1.6 kmh 29.92 in1013.2 mb 0.00 in0.0 mm 0.00 in/hr0.0 mm/hr 0.00 in0.0 mm
01:10 AM 31.8°F-0.1°C 28.4°F-2.0°C 87% 1.0 mph N1.6 kmh N 4.0 mph6.4 kmh 29.91 in1012.9 mb 0.00 in0.0 mm 0.00 in/hr0.0 mm/hr 0.00 in0.0 mm
01:00 AM 31.9°F-0.1°C 28.2°F-2.1°C 86% 0.6 mph ESE1.0 kmh ESE 1.0 mph1.6 kmh 29.91 in1012.9 mb 0.00 in0.0 mm 0.00 in/hr0.0 mm/hr 0.00 in0.0 mm
12:50 AM 31.9°F-0.1°C 28.5°F-1.9°C 87% 0.6 mph NNE1.0 kmh NNE 3.0 mph4.8 kmh 29.91 in1012.9 mb 0.00 in0.0 mm 0.00 in/hr0.0 mm/hr 0.00 in0.0 mm
12:40 AM 31.9°F-0.1°C 28.5°F-1.9°C 87% 1.0 mph SW1.6 kmh SW 1.0 mph1.6 kmh 29.91 in1012.9 mb 0.00 in0.0 mm 0.00 in/hr0.0 mm/hr 0.00 in0.0 mm
12:30 AM 31.9°F-0.1°C 28.5°F-1.9°C 87% 1.5 mph NW2.4 kmh NW 6.0 mph9.7 kmh 29.91 in1012.9 mb 0.00 in0.0 mm 0.00 in/hr0.0 mm/hr 0.00 in0.0 mm
12:20 AM 32.0°F0.0°C 28.6°F-1.9°C 87% 1.1 mph E1.8 kmh E 1.0 mph1.6 kmh 29.91 in1012.9 mb 0.00 in0.0 mm 0.00 in/hr0.0 mm/hr 0.00 in0.0 mm
12:10 AM 32.0°F0.0°C 28.6°F-1.9°C 87% 1.3 mph N2.1 kmh N 4.0 mph6.4 kmh 29.92 in1013.2 mb 0.00 in0.0 mm 0.00 in/hr0.0 mm/hr 0.00 in0.0 mm
12:00 AM 32.0°F0.0°C 28.6°F-1.9°C 87% 0.4 mph N0.6 kmh N 1.0 mph1.6 kmh 29.91 in1012.9 mb 0.00 in0.0 mm 0.00 in/hr0.0 mm/hr 0.00 in0.0 mm